In Rescue
 
Open Full Screen Window  High Contrast Mode
Wind Gusting 00 knots
06
July 22, 2019 4:14 PM EDT
Weather Information
Wind Direction
  340 °
Wind Speed
  06 kt (7 mph)
Wind Gust
  00 kt (0 mph)
Variable Wind
310°
010°
Altimeter
29.91 in
Visibility
7 SM
Temperature
24° C
75° F
Dewpoint
15° C
59° F
Humidity
57%
1hr Rain Fall
00.00 in.
24hr Rain Fall
00.00 in.
Sky Condition
Broken @ 3,900 ft
Broken @ 3,400 ft
VFR

METAR KPOV 222014Z AUTO 34006KT 310V010 7SM BKN034 BKN039 24/15 A2991 RMK AO2 T02370150 PWINO

FAA Disclaimer: The data displayed is for advisory purposes only and is not to be used for flight planning or operations.